sensor_id;sensor_type;location;lat;lon;timestamp;P1;durP1;ratioP1;P2;durP2;ratioP2
18983;SDS011;9626;52.552;13.436;2023-10-19T00:00:40;17.13;;;10.97;;
18983;SDS011;9626;52.552;13.436;2023-10-19T00:03:10;18.70;;;12.13;;
18983;SDS011;9626;52.552;13.436;2023-10-19T00:05:38;19.57;;;11.43;;
18983;SDS011;9626;52.552;13.436;2023-10-19T00:08:05;16.70;;;11.83;;
18983;SDS011;9626;52.552;13.436;2023-10-19T00:10:48;17.00;;;11.80;;
18983;SDS011;9626;52.552;13.436;2023-10-19T00:13:27;17.67;;;11.80;;
18983;SDS011;9626;52.552;13.436;2023-10-19T00:15:55;15.83;;;11.47;;
18983;SDS011;9626;52.552;13.436;2023-10-19T00:18:23;15.23;;;10.83;;
18983;SDS011;9626;52.552;13.436;2023-10-19T00:20:51;16.60;;;11.13;;
18983;SDS011;9626;52.552;13.436;2023-10-19T00:23:20;15.13;;;11.33;;
18983;SDS011;9626;52.552;13.436;2023-10-19T00:25:55;18.07;;;11.90;;
18983;SDS011;9626;52.552;13.436;2023-10-19T00:28:22;16.87;;;11.33;;
18983;SDS011;9626;52.552;13.436;2023-10-19T00:30:48;18.27;;;11.20;;
18983;SDS011;9626;52.552;13.436;2023-10-19T00:33:21;16.90;;;11.77;;
18983;SDS011;9626;52.552;13.436;2023-10-19T00:35:48;17.70;;;10.77;;
18983;SDS011;9626;52.552;13.436;2023-10-19T00:38:25;14.93;;;10.40;;
18983;SDS011;9626;52.552;13.436;2023-10-19T00:41:04;18.33;;;10.87;;
18983;SDS011;9626;52.552;13.436;2023-10-19T00:43:39;17.57;;;10.97;;
18983;SDS011;9626;52.552;13.436;2023-10-19T00:46:13;17.97;;;12.07;;
18983;SDS011;9626;52.552;13.436;2023-10-19T00:49:05;17.90;;;11.80;;
18983;SDS011;9626;52.552;13.436;2023-10-19T00:54:55;15.73;;;11.43;;
18983;SDS011;9626;52.552;13.436;2023-10-19T00:57:16;17.80;;;11.37;;
18983;SDS011;9626;52.552;13.436;2023-10-19T00:59:46;15.30;;;11.50;;
18983;SDS011;9626;52.552;13.436;2023-10-19T01:02:20;18.27;;;11.77;;
18983;SDS011;9626;52.552;13.436;2023-10-19T01:04:49;16.63;;;11.87;;
18983;SDS011;9626;52.552;13.436;2023-10-19T01:07:25;16.73;;;11.73;;
18983;SDS011;9626;52.552;13.436;2023-10-19T01:09:51;18.87;;;11.93;;
18983;SDS011;9626;52.552;13.436;2023-10-19T01:12:22;17.80;;;11.60;;
18983;SDS011;9626;52.552;13.436;2023-10-19T01:17:31;17.73;;;11.93;;
18983;SDS011;9626;52.552;13.436;2023-10-19T01:19:59;16.43;;;12.27;;
18983;SDS011;9626;52.552;13.436;2023-10-19T01:22:28;18.50;;;12.37;;
18983;SDS011;9626;52.552;13.436;2023-10-19T01:24:54;19.17;;;12.97;;
18983;SDS011;9626;52.552;13.436;2023-10-19T01:27:21;19.43;;;12.80;;
18983;SDS011;9626;52.552;13.436;2023-10-19T01:29:47;19.63;;;11.60;;
18983;SDS011;9626;52.552;13.436;2023-10-19T01:32:13;20.97;;;12.47;;
18983;SDS011;9626;52.552;13.436;2023-10-19T01:34:41;16.63;;;12.63;;
18983;SDS011;9626;52.552;13.436;2023-10-19T01:37:07;21.63;;;11.93;;
18983;SDS011;9626;52.552;13.436;2023-10-19T01:39:33;18.53;;;12.50;;
18983;SDS011;9626;52.552;13.436;2023-10-19T01:42:04;20.53;;;12.90;;
18983;SDS011;9626;52.552;13.436;2023-10-19T01:44:31;17.97;;;11.60;;
18983;SDS011;9626;52.552;13.436;2023-10-19T01:46:57;18.87;;;12.40;;
18983;SDS011;9626;52.552;13.436;2023-10-19T01:49:26;18.40;;;12.33;;
18983;SDS011;9626;52.552;13.436;2023-10-19T01:51:53;19.60;;;12.00;;
18983;SDS011;9626;52.552;13.436;2023-10-19T01:54:22;23.87;;;12.93;;
18983;SDS011;9626;52.552;13.436;2023-10-19T01:56:51;20.03;;;11.77;;
18983;SDS011;9626;52.552;13.436;2023-10-19T01:59:25;20.87;;;12.37;;
18983;SDS011;9626;52.552;13.436;2023-10-19T02:01:53;20.63;;;12.43;;
18983;SDS011;9626;52.552;13.436;2023-10-19T02:04:20;19.50;;;12.70;;
18983;SDS011;9626;52.552;13.436;2023-10-19T02:06:47;27.73;;;13.23;;
18983;SDS011;9626;52.552;13.436;2023-10-19T02:09:14;21.13;;;12.67;;
18983;SDS011;9626;52.552;13.436;2023-10-19T02:11:40;21.30;;;13.63;;
18983;SDS011;9626;52.552;13.436;2023-10-19T02:14:07;18.27;;;12.80;;
18983;SDS011;9626;52.552;13.436;2023-10-19T02:16:43;23.37;;;12.43;;
18983;SDS011;9626;52.552;13.436;2023-10-19T02:19:11;19.43;;;12.30;;
18983;SDS011;9626;52.552;13.436;2023-10-19T02:21:37;20.37;;;13.03;;
18983;SDS011;9626;52.552;13.436;2023-10-19T02:24:06;18.37;;;13.37;;
18983;SDS011;9626;52.552;13.436;2023-10-19T02:26:33;21.33;;;13.43;;
18983;SDS011;9626;52.552;13.436;2023-10-19T02:29:03;18.87;;;13.33;;
18983;SDS011;9626;52.552;13.436;2023-10-19T02:31:33;18.63;;;12.80;;
18983;SDS011;9626;52.552;13.436;2023-10-19T02:34:03;20.47;;;13.07;;
18983;SDS011;9626;52.552;13.436;2023-10-19T02:36:30;22.00;;;13.10;;
18983;SDS011;9626;52.552;13.436;2023-10-19T02:38:57;22.23;;;12.50;;
18983;SDS011;9626;52.552;13.436;2023-10-19T02:41:25;19.47;;;13.63;;
18983;SDS011;9626;52.552;13.436;2023-10-19T02:43:54;19.73;;;12.70;;
18983;SDS011;9626;52.552;13.436;2023-10-19T02:46:46;18.40;;;13.00;;
18983;SDS011;9626;52.552;13.436;2023-10-19T02:49:18;20.27;;;13.57;;
18983;SDS011;9626;52.552;13.436;2023-10-19T02:51:46;22.10;;;13.67;;
18983;SDS011;9626;52.552;13.436;2023-10-19T02:54:14;20.40;;;12.90;;
18983;SDS011;9626;52.552;13.436;2023-10-19T02:56:55;25.37;;;14.13;;
18983;SDS011;9626;52.552;13.436;2023-10-19T02:59:25;17.93;;;12.23;;
18983;SDS011;9626;52.552;13.436;2023-10-19T03:01:57;21.37;;;12.80;;
18983;SDS011;9626;52.552;13.436;2023-10-19T03:04:32;24.40;;;13.67;;
18983;SDS011;9626;52.552;13.436;2023-10-19T03:07:05;20.40;;;12.73;;
18983;SDS011;9626;52.552;13.436;2023-10-19T03:09:33;21.63;;;13.57;;
18983;SDS011;9626;52.552;13.436;2023-10-19T03:12:02;22.03;;;13.13;;
18983;SDS011;9626;52.552;13.436;2023-10-19T03:14:30;20.10;;;13.70;;
18983;SDS011;9626;52.552;13.436;2023-10-19T03:16:59;28.97;;;14.37;;
18983;SDS011;9626;52.552;13.436;2023-10-19T03:19:25;21.87;;;13.90;;
18983;SDS011;9626;52.552;13.436;2023-10-19T03:21:52;19.47;;;12.50;;
18983;SDS011;9626;52.552;13.436;2023-10-19T03:24:21;20.93;;;12.27;;
18983;SDS011;9626;52.552;13.436;2023-10-19T03:27:08;22.73;;;13.77;;
18983;SDS011;9626;52.552;13.436;2023-10-19T03:29:47;22.63;;;13.73;;
18983;SDS011;9626;52.552;13.436;2023-10-19T03:32:19;18.50;;;13.20;;
18983;SDS011;9626;52.552;13.436;2023-10-19T03:34:55;22.43;;;13.67;;
18983;SDS011;9626;52.552;13.436;2023-10-19T03:37:22;20.67;;;13.90;;
18983;SDS011;9626;52.552;13.436;2023-10-19T03:39:51;23.27;;;14.37;;
18983;SDS011;9626;52.552;13.436;2023-10-19T03:42:18;27.03;;;14.87;;
18983;SDS011;9626;52.552;13.436;2023-10-19T03:44:46;23.80;;;13.83;;
18983;SDS011;9626;52.552;13.436;2023-10-19T03:47:15;25.43;;;15.00;;
18983;SDS011;9626;52.552;13.436;2023-10-19T03:49:45;24.27;;;15.23;;
18983;SDS011;9626;52.552;13.436;2023-10-19T03:52:12;23.80;;;13.60;;
18983;SDS011;9626;52.552;13.436;2023-10-19T03:54:39;19.40;;;13.53;;
18983;SDS011;9626;52.552;13.436;2023-10-19T03:57:10;20.67;;;14.00;;
18983;SDS011;9626;52.552;13.436;2023-10-19T03:59:37;20.13;;;13.77;;
18983;SDS011;9626;52.552;13.436;2023-10-19T04:02:07;19.63;;;13.27;;
18983;SDS011;9626;52.552;13.436;2023-10-19T04:04:45;20.83;;;13.40;;
18983;SDS011;9626;52.552;13.436;2023-10-19T04:07:14;20.37;;;13.30;;
18983;SDS011;9626;52.552;13.436;2023-10-19T04:09:43;22.03;;;14.80;;
18983;SDS011;9626;52.552;13.436;2023-10-19T04:12:28;23.43;;;13.90;;
18983;SDS011;9626;52.552;13.436;2023-10-19T04:14:58;23.90;;;14.00;;
18983;SDS011;9626;52.552;13.436;2023-10-19T04:17:43;21.77;;;13.97;;
18983;SDS011;9626;52.552;13.436;2023-10-19T04:20:13;23.23;;;14.83;;
18983;SDS011;9626;52.552;13.436;2023-10-19T04:22:46;20.77;;;13.87;;
18983;SDS011;9626;52.552;13.436;2023-10-19T04:25:14;21.10;;;14.37;;
18983;SDS011;9626;52.552;13.436;2023-10-19T04:27:55;24.80;;;14.50;;
18983;SDS011;9626;52.552;13.436;2023-10-19T04:30:22;29.00;;;14.83;;
18983;SDS011;9626;52.552;13.436;2023-10-19T04:32:49;25.07;;;15.03;;
18983;SDS011;9626;52.552;13.436;2023-10-19T04:35:17;21.87;;;14.37;;
18983;SDS011;9626;52.552;13.436;2023-10-19T04:37:49;23.83;;;13.77;;
18983;SDS011;9626;52.552;13.436;2023-10-19T04:40:21;21.50;;;14.13;;
18983;SDS011;9626;52.552;13.436;2023-10-19T04:42:52;21.20;;;14.43;;
18983;SDS011;9626;52.552;13.436;2023-10-19T04:45:19;26.73;;;13.97;;
18983;SDS011;9626;52.552;13.436;2023-10-19T04:47:45;20.10;;;14.63;;
18983;SDS011;9626;52.552;13.436;2023-10-19T04:50:12;21.57;;;14.63;;
18983;SDS011;9626;52.552;13.436;2023-10-19T04:52:38;21.30;;;14.23;;
18983;SDS011;9626;52.552;13.436;2023-10-19T04:55:05;24.10;;;14.80;;
18983;SDS011;9626;52.552;13.436;2023-10-19T04:57:31;27.70;;;15.77;;
18983;SDS011;9626;52.552;13.436;2023-10-19T04:59:57;26.93;;;16.30;;
18983;SDS011;9626;52.552;13.436;2023-10-19T05:02:23;23.50;;;14.43;;
18983;SDS011;9626;52.552;13.436;2023-10-19T05:04:50;22.20;;;15.67;;
18983;SDS011;9626;52.552;13.436;2023-10-19T05:07:15;26.93;;;15.73;;
18983;SDS011;9626;52.552;13.436;2023-10-19T05:09:45;27.57;;;15.40;;
18983;SDS011;9626;52.552;13.436;2023-10-19T05:12:11;25.53;;;16.53;;
18983;SDS011;9626;52.552;13.436;2023-10-19T05:14:40;35.50;;;24.07;;
18983;SDS011;9626;52.552;13.436;2023-10-19T05:17:07;26.63;;;16.33;;
18983;SDS011;9626;52.552;13.436;2023-10-19T05:19:38;28.80;;;19.00;;
18983;SDS011;9626;52.552;13.436;2023-10-19T05:22:06;25.40;;;16.57;;
18983;SDS011;9626;52.552;13.436;2023-10-19T05:24:35;30.50;;;18.60;;
18983;SDS011;9626;52.552;13.436;2023-10-19T05:27:01;34.87;;;23.97;;
18983;SDS011;9626;52.552;13.436;2023-10-19T05:29:30;31.73;;;20.43;;
18983;SDS011;9626;52.552;13.436;2023-10-19T05:31:58;40.27;;;22.80;;
18983;SDS011;9626;52.552;13.436;2023-10-19T05:34:24;42.10;;;25.90;;
18983;SDS011;9626;52.552;13.436;2023-10-19T05:36:52;31.90;;;19.33;;
18983;SDS011;9626;52.552;13.436;2023-10-19T05:39:19;34.23;;;18.03;;
18983;SDS011;9626;52.552;13.436;2023-10-19T05:41:53;25.77;;;16.87;;
18983;SDS011;9626;52.552;13.436;2023-10-19T05:44:20;24.53;;;16.03;;
18983;SDS011;9626;52.552;13.436;2023-10-19T05:46:46;28.17;;;17.20;;
18983;SDS011;9626;52.552;13.436;2023-10-19T05:49:12;27.83;;;16.37;;
18983;SDS011;9626;52.552;13.436;2023-10-19T05:51:38;26.13;;;16.60;;
18983;SDS011;9626;52.552;13.436;2023-10-19T05:54:04;25.40;;;17.07;;
18983;SDS011;9626;52.552;13.436;2023-10-19T05:56:31;23.87;;;16.57;;
18983;SDS011;9626;52.552;13.436;2023-10-19T05:58:59;27.37;;;16.93;;
18983;SDS011;9626;52.552;13.436;2023-10-19T06:01:26;26.63;;;15.67;;
18983;SDS011;9626;52.552;13.436;2023-10-19T06:03:52;23.93;;;15.93;;
18983;SDS011;9626;52.552;13.436;2023-10-19T06:06:19;24.27;;;16.43;;
18983;SDS011;9626;52.552;13.436;2023-10-19T06:08:45;27.07;;;16.90;;
18983;SDS011;9626;52.552;13.436;2023-10-19T06:11:12;27.30;;;16.30;;
18983;SDS011;9626;52.552;13.436;2023-10-19T06:13:38;30.27;;;17.53;;
18983;SDS011;9626;52.552;13.436;2023-10-19T06:16:04;26.80;;;17.03;;
18983;SDS011;9626;52.552;13.436;2023-10-19T06:18:30;30.43;;;16.70;;
18983;SDS011;9626;52.552;13.436;2023-10-19T06:20:57;27.33;;;17.27;;
18983;SDS011;9626;52.552;13.436;2023-10-19T06:23:23;23.93;;;16.47;;
18983;SDS011;9626;52.552;13.436;2023-10-19T06:25:50;27.13;;;16.43;;
18983;SDS011;9626;52.552;13.436;2023-10-19T06:28:18;29.27;;;17.03;;
18983;SDS011;9626;52.552;13.436;2023-10-19T06:30:44;27.17;;;16.73;;
18983;SDS011;9626;52.552;13.436;2023-10-19T06:33:15;28.80;;;16.60;;
18983;SDS011;9626;52.552;13.436;2023-10-19T06:35:41;26.40;;;17.00;;
18983;SDS011;9626;52.552;13.436;2023-10-19T06:38:07;24.00;;;15.67;;
18983;SDS011;9626;52.552;13.436;2023-10-19T06:40:35;26.17;;;17.20;;
18983;SDS011;9626;52.552;13.436;2023-10-19T06:43:04;28.03;;;16.57;;
18983;SDS011;9626;52.552;13.436;2023-10-19T06:45:31;27.70;;;17.80;;
18983;SDS011;9626;52.552;13.436;2023-10-19T06:47:57;26.27;;;17.13;;
18983;SDS011;9626;52.552;13.436;2023-10-19T06:50:25;28.87;;;17.23;;
18983;SDS011;9626;52.552;13.436;2023-10-19T06:52:52;26.90;;;16.50;;
18983;SDS011;9626;52.552;13.436;2023-10-19T06:55:20;26.67;;;17.10;;
18983;SDS011;9626;52.552;13.436;2023-10-19T06:57:53;25.33;;;17.27;;
18983;SDS011;9626;52.552;13.436;2023-10-19T07:00:20;27.57;;;17.17;;
18983;SDS011;9626;52.552;13.436;2023-10-19T07:02:48;25.93;;;16.03;;
18983;SDS011;9626;52.552;13.436;2023-10-19T07:05:16;27.70;;;17.93;;
18983;SDS011;9626;52.552;13.436;2023-10-19T07:08:06;28.27;;;16.47;;
18983;SDS011;9626;52.552;13.436;2023-10-19T07:10:32;28.93;;;17.50;;
18983;SDS011;9626;52.552;13.436;2023-10-19T07:13:00;28.67;;;16.43;;
18983;SDS011;9626;52.552;13.436;2023-10-19T07:15:26;28.23;;;17.03;;
18983;SDS011;9626;52.552;13.436;2023-10-19T07:17:53;26.50;;;16.73;;
18983;SDS011;9626;52.552;13.436;2023-10-19T07:20:20;26.37;;;16.93;;
18983;SDS011;9626;52.552;13.436;2023-10-19T07:22:58;25.80;;;16.07;;
18983;SDS011;9626;52.552;13.436;2023-10-19T07:25:29;25.47;;;15.77;;
18983;SDS011;9626;52.552;13.436;2023-10-19T07:27:56;24.87;;;16.37;;
18983;SDS011;9626;52.552;13.436;2023-10-19T07:30:25;26.10;;;16.50;;
18983;SDS011;9626;52.552;13.436;2023-10-19T07:32:52;27.93;;;16.87;;
18983;SDS011;9626;52.552;13.436;2023-10-19T07:35:24;26.33;;;16.60;;
18983;SDS011;9626;52.552;13.436;2023-10-19T07:37:56;23.07;;;15.83;;
18983;SDS011;9626;52.552;13.436;2023-10-19T07:40:22;28.30;;;17.20;;
18983;SDS011;9626;52.552;13.436;2023-10-19T07:42:49;28.87;;;16.80;;
18983;SDS011;9626;52.552;13.436;2023-10-19T07:45:18;25.23;;;16.93;;
18983;SDS011;9626;52.552;13.436;2023-10-19T07:47:44;27.00;;;16.77;;
18983;SDS011;9626;52.552;13.436;2023-10-19T07:50:11;31.83;;;16.80;;
18983;SDS011;9626;52.552;13.436;2023-10-19T07:52:45;26.17;;;16.90;;
18983;SDS011;9626;52.552;13.436;2023-10-19T07:55:14;24.30;;;15.97;;
18983;SDS011;9626;52.552;13.436;2023-10-19T07:57:41;23.70;;;16.70;;
18983;SDS011;9626;52.552;13.436;2023-10-19T08:00:08;25.30;;;15.47;;
18983;SDS011;9626;52.552;13.436;2023-10-19T08:02:36;25.00;;;16.00;;
18983;SDS011;9626;52.552;13.436;2023-10-19T08:05:12;24.67;;;16.77;;
18983;SDS011;9626;52.552;13.436;2023-10-19T08:07:44;25.50;;;15.87;;
18983;SDS011;9626;52.552;13.436;2023-10-19T08:10:13;25.97;;;16.27;;
18983;SDS011;9626;52.552;13.436;2023-10-19T08:12:41;28.43;;;15.87;;
18983;SDS011;9626;52.552;13.436;2023-10-19T08:15:11;27.03;;;16.03;;
18983;SDS011;9626;52.552;13.436;2023-10-19T08:17:38;23.87;;;15.37;;
18983;SDS011;9626;52.552;13.436;2023-10-19T08:20:08;22.90;;;15.70;;
18983;SDS011;9626;52.552;13.436;2023-10-19T08:22:44;25.73;;;16.00;;
18983;SDS011;9626;52.552;13.436;2023-10-19T08:25:13;25.13;;;16.37;;
18983;SDS011;9626;52.552;13.436;2023-10-19T08:27:45;22.97;;;15.57;;
18983;SDS011;9626;52.552;13.436;2023-10-19T08:30:19;24.10;;;15.00;;
18983;SDS011;9626;52.552;13.436;2023-10-19T08:32:46;25.30;;;15.33;;
18983;SDS011;9626;52.552;13.436;2023-10-19T08:35:17;24.63;;;15.83;;
18983;SDS011;9626;52.552;13.436;2023-10-19T08:37:55;24.60;;;16.37;;
18983;SDS011;9626;52.552;13.436;2023-10-19T08:40:24;24.43;;;16.13;;
18983;SDS011;9626;52.552;13.436;2023-10-19T08:42:52;23.10;;;15.50;;
18983;SDS011;9626;52.552;13.436;2023-10-19T08:45:19;24.67;;;16.63;;
18983;SDS011;9626;52.552;13.436;2023-10-19T08:47:53;21.80;;;15.23;;
18983;SDS011;9626;52.552;13.436;2023-10-19T08:50:24;23.63;;;16.47;;
18983;SDS011;9626;52.552;13.436;2023-10-19T08:52:52;24.27;;;16.17;;
18983;SDS011;9626;52.552;13.436;2023-10-19T08:55:19;27.50;;;15.47;;
18983;SDS011;9626;52.552;13.436;2023-10-19T08:57:46;23.23;;;15.50;;
18983;SDS011;9626;52.552;13.436;2023-10-19T09:00:15;23.53;;;16.10;;
18983;SDS011;9626;52.552;13.436;2023-10-19T09:02:45;24.77;;;15.13;;
18983;SDS011;9626;52.552;13.436;2023-10-19T09:05:11;26.17;;;16.13;;
18983;SDS011;9626;52.552;13.436;2023-10-19T09:07:48;28.43;;;16.70;;
18983;SDS011;9626;52.552;13.436;2023-10-19T09:10:26;26.07;;;15.53;;
18983;SDS011;9626;52.552;13.436;2023-10-19T09:13:06;26.40;;;15.33;;
18983;SDS011;9626;52.552;13.436;2023-10-19T09:15:39;28.20;;;16.13;;
18983;SDS011;9626;52.552;13.436;2023-10-19T09:18:16;22.53;;;14.53;;
18983;SDS011;9626;52.552;13.436;2023-10-19T09:20:48;23.63;;;15.53;;
18983;SDS011;9626;52.552;13.436;2023-10-19T09:23:21;22.23;;;14.37;;
18983;SDS011;9626;52.552;13.436;2023-10-19T09:25:55;22.37;;;15.00;;
18983;SDS011;9626;52.552;13.436;2023-10-19T09:28:23;24.93;;;15.33;;
18983;SDS011;9626;52.552;13.436;2023-10-19T09:30:50;26.13;;;15.67;;
18983;SDS011;9626;52.552;13.436;2023-10-19T09:33:17;23.90;;;14.93;;
18983;SDS011;9626;52.552;13.436;2023-10-19T09:35:46;23.80;;;15.10;;
18983;SDS011;9626;52.552;13.436;2023-10-19T09:38:15;23.57;;;14.87;;
18983;SDS011;9626;52.552;13.436;2023-10-19T09:40:41;23.47;;;15.63;;
18983;SDS011;9626;52.552;13.436;2023-10-19T09:43:10;24.30;;;16.00;;
18983;SDS011;9626;52.552;13.436;2023-10-19T09:45:42;27.40;;;16.00;;
18983;SDS011;9626;52.552;13.436;2023-10-19T09:48:17;23.57;;;15.20;;
18983;SDS011;9626;52.552;13.436;2023-10-19T09:50:45;24.70;;;16.57;;
18983;SDS011;9626;52.552;13.436;2023-10-19T09:53:22;22.10;;;15.33;;
18983;SDS011;9626;52.552;13.436;2023-10-19T09:55:51;22.17;;;15.63;;
18983;SDS011;9626;52.552;13.436;2023-10-19T09:58:24;25.63;;;15.90;;
18983;SDS011;9626;52.552;13.436;2023-10-19T10:00:55;24.30;;;16.43;;
18983;SDS011;9626;52.552;13.436;2023-10-19T10:06:09;24.30;;;14.77;;
18983;SDS011;9626;52.552;13.436;2023-10-19T10:08:35;24.27;;;15.77;;
18983;SDS011;9626;52.552;13.436;2023-10-19T10:11:13;26.27;;;15.73;;
18983;SDS011;9626;52.552;13.436;2023-10-19T10:13:47;27.53;;;16.17;;
18983;SDS011;9626;52.552;13.436;2023-10-19T10:16:17;21.80;;;15.37;;
18983;SDS011;9626;52.552;13.436;2023-10-19T10:18:45;24.57;;;15.73;;
18983;SDS011;9626;52.552;13.436;2023-10-19T10:21:14;22.57;;;15.30;;
18983;SDS011;9626;52.552;13.436;2023-10-19T10:23:43;23.80;;;15.20;;
18983;SDS011;9626;52.552;13.436;2023-10-19T10:26:11;28.80;;;17.07;;
18983;SDS011;9626;52.552;13.436;2023-10-19T10:28:45;25.47;;;16.07;;
18983;SDS011;9626;52.552;13.436;2023-10-19T10:31:20;24.60;;;16.57;;
18983;SDS011;9626;52.552;13.436;2023-10-19T10:33:48;25.10;;;16.13;;
18983;SDS011;9626;52.552;13.436;2023-10-19T10:36:20;26.97;;;16.37;;
18983;SDS011;9626;52.552;13.436;2023-10-19T10:38:50;28.70;;;17.03;;
18983;SDS011;9626;52.552;13.436;2023-10-19T10:41:23;24.37;;;17.10;;
18983;SDS011;9626;52.552;13.436;2023-10-19T10:43:58;26.60;;;16.83;;
18983;SDS011;9626;52.552;13.436;2023-10-19T10:46:25;27.60;;;18.13;;
18983;SDS011;9626;52.552;13.436;2023-10-19T10:48:52;24.73;;;16.47;;
18983;SDS011;9626;52.552;13.436;2023-10-19T10:51:19;28.33;;;17.27;;
18983;SDS011;9626;52.552;13.436;2023-10-19T10:53:50;27.57;;;16.00;;
18983;SDS011;9626;52.552;13.436;2023-10-19T10:56:19;23.57;;;16.37;;
18983;SDS011;9626;52.552;13.436;2023-10-19T10:58:49;27.17;;;17.73;;
18983;SDS011;9626;52.552;13.436;2023-10-19T11:01:27;26.77;;;17.40;;
18983;SDS011;9626;52.552;13.436;2023-10-19T11:04:08;23.53;;;17.03;;
18983;SDS011;9626;52.552;13.436;2023-10-19T11:06:46;26.20;;;16.77;;
18983;SDS011;9626;52.552;13.436;2023-10-19T11:09:14;33.50;;;16.57;;
18983;SDS011;9626;52.552;13.436;2023-10-19T11:11:44;26.87;;;17.47;;
18983;SDS011;9626;52.552;13.436;2023-10-19T11:14:11;25.03;;;16.90;;
18983;SDS011;9626;52.552;13.436;2023-10-19T11:16:37;26.70;;;16.47;;
18983;SDS011;9626;52.552;13.436;2023-10-19T11:19:05;24.53;;;17.03;;
18983;SDS011;9626;52.552;13.436;2023-10-19T11:21:31;24.27;;;16.53;;
18983;SDS011;9626;52.552;13.436;2023-10-19T11:23:57;28.53;;;18.37;;
18983;SDS011;9626;52.552;13.436;2023-10-19T11:26:24;31.40;;;17.77;;
18983;SDS011;9626;52.552;13.436;2023-10-19T11:29:01;25.63;;;17.73;;
18983;SDS011;9626;52.552;13.436;2023-10-19T11:31:29;27.23;;;17.30;;
18983;SDS011;9626;52.552;13.436;2023-10-19T11:34:03;28.90;;;17.70;;
18983;SDS011;9626;52.552;13.436;2023-10-19T11:36:29;29.10;;;17.33;;
18983;SDS011;9626;52.552;13.436;2023-10-19T11:38:55;29.03;;;17.83;;
18983;SDS011;9626;52.552;13.436;2023-10-19T11:41:21;25.40;;;16.23;;
18983;SDS011;9626;52.552;13.436;2023-10-19T11:43:48;27.97;;;17.37;;
18983;SDS011;9626;52.552;13.436;2023-10-19T11:46:16;23.83;;;17.93;;
18983;SDS011;9626;52.552;13.436;2023-10-19T11:48:48;29.57;;;19.00;;
18983;SDS011;9626;52.552;13.436;2023-10-19T11:51:14;26.53;;;17.83;;
18983;SDS011;9626;52.552;13.436;2023-10-19T11:53:41;27.00;;;17.67;;
18983;SDS011;9626;52.552;13.436;2023-10-19T11:56:09;24.80;;;17.43;;
18983;SDS011;9626;52.552;13.436;2023-10-19T11:58:38;26.40;;;18.10;;
18983;SDS011;9626;52.552;13.436;2023-10-19T12:01:08;26.27;;;17.57;;
18983;SDS011;9626;52.552;13.436;2023-10-19T12:03:37;29.60;;;18.37;;
18983;SDS011;9626;52.552;13.436;2023-10-19T12:06:08;29.73;;;17.97;;
18983;SDS011;9626;52.552;13.436;2023-10-19T12:08:36;28.63;;;20.23;;
18983;SDS011;9626;52.552;13.436;2023-10-19T12:11:03;32.13;;;20.23;;
18983;SDS011;9626;52.552;13.436;2023-10-19T12:13:31;28.40;;;18.63;;
18983;SDS011;9626;52.552;13.436;2023-10-19T12:15:57;28.67;;;19.07;;
18983;SDS011;9626;52.552;13.436;2023-10-19T12:18:24;27.23;;;18.33;;
18983;SDS011;9626;52.552;13.436;2023-10-19T12:20:54;29.17;;;19.27;;
18983;SDS011;9626;52.552;13.436;2023-10-19T12:23:25;26.60;;;18.27;;
18983;SDS011;9626;52.552;13.436;2023-10-19T12:25:52;27.13;;;18.97;;
18983;SDS011;9626;52.552;13.436;2023-10-19T12:28:18;26.10;;;17.93;;
18983;SDS011;9626;52.552;13.436;2023-10-19T12:30:44;31.80;;;19.53;;
18983;SDS011;9626;52.552;13.436;2023-10-19T12:33:10;28.33;;;17.93;;
18983;SDS011;9626;52.552;13.436;2023-10-19T12:35:40;27.63;;;18.67;;
18983;SDS011;9626;52.552;13.436;2023-10-19T12:38:11;32.73;;;17.87;;
18983;SDS011;9626;52.552;13.436;2023-10-19T12:40:45;29.13;;;18.67;;
18983;SDS011;9626;52.552;13.436;2023-10-19T12:43:13;25.67;;;18.07;;
18983;SDS011;9626;52.552;13.436;2023-10-19T12:45:41;30.03;;;18.60;;
18983;SDS011;9626;52.552;13.436;2023-10-19T12:48:09;29.17;;;19.80;;
18983;SDS011;9626;52.552;13.436;2023-10-19T12:50:37;29.63;;;19.70;;
18983;SDS011;9626;52.552;13.436;2023-10-19T12:53:04;26.17;;;18.40;;
18983;SDS011;9626;52.552;13.436;2023-10-19T12:55:30;27.53;;;18.17;;
18983;SDS011;9626;52.552;13.436;2023-10-19T12:57:57;28.13;;;19.03;;
18983;SDS011;9626;52.552;13.436;2023-10-19T13:00:25;26.90;;;18.03;;
18983;SDS011;9626;52.552;13.436;2023-10-19T13:03:11;31.73;;;19.80;;
18983;SDS011;9626;52.552;13.436;2023-10-19T13:05:42;27.47;;;19.33;;
18983;SDS011;9626;52.552;13.436;2023-10-19T13:08:10;30.47;;;19.80;;
18983;SDS011;9626;52.552;13.436;2023-10-19T13:10:44;27.53;;;18.53;;
18983;SDS011;9626;52.552;13.436;2023-10-19T13:13:13;31.03;;;19.83;;
18983;SDS011;9626;52.552;13.436;2023-10-19T13:15:41;27.17;;;18.30;;
18983;SDS011;9626;52.552;13.436;2023-10-19T13:18:10;27.87;;;18.53;;
18983;SDS011;9626;52.552;13.436;2023-10-19T13:20:39;28.07;;;18.73;;
18983;SDS011;9626;52.552;13.436;2023-10-19T13:23:09;29.70;;;18.20;;
18983;SDS011;9626;52.552;13.436;2023-10-19T13:25:41;26.00;;;18.23;;
18983;SDS011;9626;52.552;13.436;2023-10-19T13:28:12;26.77;;;18.00;;
18983;SDS011;9626;52.552;13.436;2023-10-19T13:30:45;27.63;;;18.90;;
18983;SDS011;9626;52.552;13.436;2023-10-19T13:33:19;30.13;;;19.00;;
18983;SDS011;9626;52.552;13.436;2023-10-19T13:35:49;28.67;;;18.87;;
18983;SDS011;9626;52.552;13.436;2023-10-19T13:38:17;29.83;;;19.87;;
18983;SDS011;9626;52.552;13.436;2023-10-19T13:40:46;27.33;;;19.10;;
18983;SDS011;9626;52.552;13.436;2023-10-19T13:43:13;30.83;;;18.97;;
18983;SDS011;9626;52.552;13.436;2023-10-19T13:45:39;26.10;;;18.27;;
18983;SDS011;9626;52.552;13.436;2023-10-19T13:48:07;28.47;;;19.10;;
18983;SDS011;9626;52.552;13.436;2023-10-19T13:50:35;28.87;;;19.33;;
18983;SDS011;9626;52.552;13.436;2023-10-19T13:53:02;27.80;;;18.50;;
18983;SDS011;9626;52.552;13.436;2023-10-19T13:55:30;34.53;;;20.80;;
18983;SDS011;9626;52.552;13.436;2023-10-19T13:57:57;28.23;;;19.83;;
18983;SDS011;9626;52.552;13.436;2023-10-19T14:00:26;27.77;;;19.17;;
18983;SDS011;9626;52.552;13.436;2023-10-19T14:02:58;29.33;;;19.23;;
18983;SDS011;9626;52.552;13.436;2023-10-19T14:05:26;30.87;;;19.10;;
18983;SDS011;9626;52.552;13.436;2023-10-19T14:07:53;27.67;;;18.97;;
18983;SDS011;9626;52.552;13.436;2023-10-19T14:10:20;28.83;;;19.50;;
18983;SDS011;9626;52.552;13.436;2023-10-19T14:12:47;29.53;;;18.80;;
18983;SDS011;9626;52.552;13.436;2023-10-19T14:15:16;30.70;;;19.37;;
18983;SDS011;9626;52.552;13.436;2023-10-19T14:17:44;28.03;;;19.43;;
18983;SDS011;9626;52.552;13.436;2023-10-19T14:20:12;27.63;;;19.00;;
18983;SDS011;9626;52.552;13.436;2023-10-19T14:22:40;27.20;;;19.40;;
18983;SDS011;9626;52.552;13.436;2023-10-19T14:25:16;31.10;;;18.83;;
18983;SDS011;9626;52.552;13.436;2023-10-19T14:27:45;28.33;;;19.77;;
18983;SDS011;9626;52.552;13.436;2023-10-19T14:30:14;30.73;;;20.33;;
18983;SDS011;9626;52.552;13.436;2023-10-19T14:32:42;27.27;;;19.27;;
18983;SDS011;9626;52.552;13.436;2023-10-19T14:35:10;27.77;;;19.30;;
18983;SDS011;9626;52.552;13.436;2023-10-19T14:37:39;26.70;;;17.97;;
18983;SDS011;9626;52.552;13.436;2023-10-19T14:40:10;31.73;;;19.57;;
18983;SDS011;9626;52.552;13.436;2023-10-19T14:42:38;29.70;;;18.87;;